createdAt,value
2018-01-31T01:52:21.203Z,43.64
2018-01-31T01:54:46.497Z,43.63
2018-01-31T01:57:14.308Z,43.52
2018-01-31T01:59:42.046Z,43.41
2018-01-31T02:02:10.110Z,43.57
2018-01-31T02:04:38.176Z,43.53
2018-01-31T02:07:06.491Z,43.56
2018-01-31T02:09:34.442Z,43.66
2018-01-31T02:12:02.631Z,43.77
2018-01-31T02:14:30.586Z,43.90
2018-01-31T02:16:59.151Z,43.93
2018-01-31T02:19:27.220Z,43.88
2018-01-31T02:21:55.288Z,43.84
2018-01-31T02:24:23.350Z,43.77
2018-01-31T02:26:51.442Z,43.69
2018-01-31T02:29:19.508Z,43.73
2018-01-31T02:31:47.574Z,43.70
2018-01-31T02:34:15.739Z,43.68
2018-01-31T02:36:43.805Z,43.74
2018-01-31T02:39:23.702Z,43.77
2018-01-31T02:41:51.534Z,43.92
2018-01-31T02:44:19.723Z,44.02
2018-01-31T02:46:47.700Z,44.11
2018-01-31T02:49:15.866Z,44.10
2018-01-31T02:51:43.895Z,44.22
2018-01-31T02:54:11.985Z,44.21
2018-01-31T02:56:40.088Z,44.20
2018-01-31T02:59:08.143Z,44.22
2018-01-31T03:01:36.018Z,44.19
2018-01-31T03:04:04.130Z,44.10
2018-01-31T03:06:31.940Z,44.08
2018-01-31T03:09:00.008Z,44.11
2018-01-31T03:11:28.057Z,44.06
2018-01-31T03:13:56.811Z,43.97
2018-01-31T03:16:24.930Z,44.08
2018-01-31T03:18:53.017Z,44.01
2018-01-31T03:21:21.085Z,43.99
2018-01-31T03:23:49.086Z,44.11
2018-01-31T03:26:17.275Z,44.06
2018-01-31T03:28:45.266Z,44.07
2018-01-31T03:31:13.496Z,43.99
2018-01-31T03:33:41.762Z,44.06
2018-01-31T03:36:09.737Z,44.16
2018-01-31T03:38:38.026Z,44.12
2018-01-31T03:41:06.618Z,44.12
2018-01-31T03:43:34.736Z,44.16
2018-01-31T03:46:02.716Z,44.23
2018-01-31T03:48:30.618Z,44.18
2018-01-31T03:50:58.373Z,44.12
2018-01-31T03:53:26.441Z,44.09
2018-01-31T03:55:54.259Z,44.01
2018-01-31T03:58:22.593Z,43.93
2018-01-31T04:00:50.971Z,43.93
2018-01-31T04:03:18.773Z,43.92
2018-01-31T04:05:46.612Z,43.91
2018-01-31T04:08:14.733Z,43.87
2018-01-31T04:10:42.822Z,43.80
2018-01-31T04:13:11.722Z,43.83
2018-01-31T04:15:39.953Z,43.86
2018-01-31T04:18:08.072Z,44.04
2018-01-31T04:20:36.310Z,44.05
2018-01-31T04:23:04.375Z,44.06
2018-01-31T04:25:32.442Z,44.03
2018-01-31T04:28:00.973Z,44.12
2018-01-31T04:30:28.795Z,44.31
2018-01-31T04:32:56.562Z,44.30
2018-01-31T04:35:24.614Z,44.26
2018-01-31T04:37:52.646Z,44.05
2018-01-31T04:40:20.883Z,44.08
2018-01-31T04:42:49.701Z,44.11
2018-01-31T04:45:17.784Z,44.15
2018-01-31T04:47:46.150Z,44.07
2018-01-31T04:50:14.539Z,43.86
2018-01-31T04:52:42.602Z,43.94
2018-01-31T04:55:10.726Z,44.17
2018-01-31T04:57:38.744Z,44.15
2018-01-31T05:00:06.823Z,44.06
2018-01-31T05:02:35.192Z,43.97
2018-01-31T05:05:03.015Z,44.07
2018-01-31T05:07:31.080Z,44.07
2018-01-31T05:09:59.172Z,43.85
2018-01-31T05:12:27.396Z,43.64
2018-01-31T05:14:55.545Z,43.51
2018-01-31T05:17:23.618Z,43.53
2018-01-31T05:19:51.696Z,43.34
2018-01-31T05:22:19.933Z,43.22
2018-01-31T05:24:47.893Z,43.34
2018-01-31T05:27:15.906Z,43.28
2018-01-31T05:29:43.847Z,43.09
2018-01-31T05:32:11.912Z,42.60
2018-01-31T05:34:39.553Z,42.74
2018-01-31T05:37:07.571Z,42.90
2018-01-31T05:39:35.507Z,43.07
2018-01-31T05:42:03.606Z,43.17
2018-01-31T05:44:31.786Z,43.14
2018-01-31T05:46:59.680Z,43.19
2018-01-31T05:49:27.769Z,43.49
2018-01-31T05:51:55.639Z,43.33
2018-01-31T05:54:23.757Z,43.32
2018-01-31T05:56:51.594Z,43.34
2018-01-31T05:59:19.662Z,43.28
2018-01-31T06:01:47.980Z,43.05
2018-01-31T06:04:16.348Z,42.52
2018-01-31T06:06:44.441Z,41.85
2018-01-31T06:09:13.439Z,41.35
2018-01-31T06:11:41.317Z,41.06
2018-01-31T06:14:10.350Z,40.48
2018-01-31T06:16:38.419Z,39.65
2018-01-31T06:19:06.493Z,38.62
2018-01-31T06:21:34.433Z,37.33
2018-01-31T06:24:03.080Z,36.76
2018-01-31T06:26:31.147Z,35.42
2018-01-31T06:28:59.096Z,35.62
2018-01-31T06:31:26.978Z,35.24
2018-01-31T06:33:54.749Z,35.08
2018-01-31T06:36:23.115Z,34.41
2018-01-31T06:38:51.503Z,34.00
2018-01-31T06:41:19.398Z,33.95
2018-01-31T06:43:47.264Z,33.94
2018-01-31T06:46:15.155Z,33.94
2018-01-31T06:48:42.973Z,34.07
2018-01-31T06:51:10.794Z,34.14
2018-01-31T06:53:38.694Z,33.98
2018-01-31T06:56:06.781Z,34.05
2018-01-31T06:58:34.962Z,34.19
2018-01-31T07:01:03.206Z,34.38
2018-01-31T07:03:30.980Z,34.02
2018-01-31T07:05:58.932Z,33.21
2018-01-31T07:08:26.815Z,33.34
2018-01-31T07:10:54.894Z,33.44
2018-01-31T07:13:23.255Z,33.45
2018-01-31T07:15:51.073Z,33.07
2018-01-31T07:18:19.398Z,33.07
2018-01-31T07:20:47.286Z,33.26
2018-01-31T07:23:15.292Z,32.97
2018-01-31T07:25:43.922Z,33.18
2018-01-31T07:28:11.872Z,33.30
2018-01-31T07:30:39.861Z,33.45
2018-01-31T07:33:07.823Z,33.29
2018-01-31T07:35:36.514Z,33.20
2018-01-31T07:38:04.625Z,33.17
2018-01-31T07:40:33.279Z,33.32
2018-01-31T07:43:02.342Z,33.31
2018-01-31T07:45:30.635Z,33.31
2018-01-31T07:47:59.964Z,33.23
2018-01-31T07:50:27.714Z,33.27
2018-01-31T07:52:55.466Z,33.32
2018-01-31T07:55:23.230Z,33.33
2018-01-31T07:57:51.418Z,33.26
2018-01-31T08:00:20.378Z,33.30
2018-01-31T08:02:50.372Z,33.38
2018-01-31T08:05:18.333Z,33.33
2018-01-31T08:07:46.436Z,33.30
2018-01-31T08:10:15.029Z,33.27
2018-01-31T08:12:43.101Z,33.33
2018-01-31T08:15:11.082Z,33.36
2018-01-31T08:17:38.950Z,33.19
2018-01-31T08:20:07.023Z,33.04
2018-01-31T08:22:34.782Z,33.04
2018-01-31T08:25:02.635Z,33.15
2018-01-31T08:27:30.659Z,33.24
2018-01-31T08:29:58.740Z,33.15
2018-01-31T08:32:26.558Z,32.95
2018-01-31T08:34:54.406Z,32.95
2018-01-31T08:37:22.463Z,33.04
2018-01-31T08:39:50.540Z,33.12
2018-01-31T08:42:18.431Z,33.15
2018-01-31T08:44:46.484Z,33.15
2018-01-31T08:47:14.652Z,33.14
2018-01-31T08:49:42.539Z,33.18
2018-01-31T08:52:10.508Z,33.19
2018-01-31T08:54:38.781Z,33.18
2018-01-31T08:57:06.541Z,33.19
2018-01-31T08:59:34.680Z,33.12
2018-01-31T09:02:02.497Z,33.15
2018-01-31T09:04:31.512Z,33.15
2018-01-31T09:06:59.748Z,33.12
2018-01-31T09:09:27.517Z,33.10
2018-01-31T09:11:55.317Z,33.07
2018-01-31T09:14:23.043Z,32.98
2018-01-31T09:16:50.804Z,33.02
2018-01-31T09:19:18.636Z,33.01
2018-01-31T09:21:46.345Z,33.12
2018-01-31T09:24:14.099Z,32.86
2018-01-31T09:26:42.834Z,32.73
2018-01-31T09:29:10.849Z,32.56
2018-01-31T09:31:38.665Z,32.55
2018-01-31T09:34:07.474Z,32.66
2018-01-31T09:36:35.567Z,32.71
2018-01-31T09:39:04.087Z,32.82
2018-01-31T09:41:32.324Z,32.82
2018-01-31T09:44:00.402Z,32.87
2018-01-31T09:46:28.571Z,32.78
2018-01-31T09:48:56.334Z,32.80
2018-01-31T09:51:24.411Z,32.77
2018-01-31T09:53:52.277Z,32.63
2018-01-31T09:56:20.556Z,32.75
2018-01-31T09:58:48.251Z,32.65
2018-01-31T10:01:15.902Z,32.70
2018-01-31T10:03:44.424Z,32.93
2018-01-31T10:06:12.099Z,33.07
2018-01-31T10:08:39.730Z,33.18
2018-01-31T10:11:07.399Z,33.35
2018-01-31T10:13:35.165Z,33.47
2018-01-31T10:16:02.973Z,33.46
2018-01-31T10:18:31.087Z,33.54
2018-01-31T10:20:59.121Z,33.38
2018-01-31T10:23:26.921Z,33.53
2018-01-31T10:25:55.136Z,33.66
2018-01-31T10:28:23.277Z,33.78
2018-01-31T10:30:51.081Z,33.97
2018-01-31T10:33:18.906Z,33.96
2018-01-31T10:35:47.646Z,34.13
2018-01-31T10:38:15.345Z,34.30
2018-01-31T10:40:43.371Z,34.56
2018-01-31T10:43:11.136Z,34.87
2018-01-31T10:45:39.260Z,34.82
2018-01-31T10:48:06.966Z,34.68
2018-01-31T10:50:34.732Z,34.78
2018-01-31T10:53:03.017Z,34.67
2018-01-31T10:57:28.598Z,34.75
2018-01-31T10:57:58.687Z,34.71
2018-01-31T11:00:28.250Z,34.78
2018-01-31T11:02:56.625Z,34.95
2018-01-31T11:05:24.564Z,34.88
2018-01-31T11:07:52.576Z,34.82
2018-01-31T11:10:21.302Z,34.73
2018-01-31T11:12:49.210Z,34.72
2018-01-31T11:15:16.990Z,34.59
2018-01-31T11:17:44.803Z,34.47
2018-01-31T11:20:12.521Z,34.54
2018-01-31T11:22:40.373Z,34.70
2018-01-31T11:25:08.362Z,34.86
2018-01-31T11:27:36.711Z,34.94
2018-01-31T11:30:05.468Z,35.04
2018-01-31T11:32:33.634Z,35.18
2018-01-31T11:35:01.574Z,35.27
2018-01-31T11:37:29.670Z,35.33
2018-01-31T11:39:58.324Z,35.16
2018-01-31T11:42:26.378Z,35.14
2018-01-31T11:44:54.140Z,35.21
2018-01-31T11:47:22.389Z,35.30
2018-01-31T11:49:50.445Z,35.25
2018-01-31T11:52:18.652Z,35.33
2018-01-31T11:54:46.252Z,35.39
2018-01-31T11:57:13.861Z,35.54
2018-01-31T11:59:41.474Z,35.60
2018-01-31T12:02:09.039Z,35.63
2018-01-31T12:04:36.647Z,35.66
2018-01-31T12:07:04.252Z,35.73
2018-01-31T12:09:37.560Z,35.75
2018-01-31T12:12:05.974Z,35.87
2018-01-31T12:14:45.383Z,35.88
2018-01-31T12:17:13.007Z,35.99
2018-01-31T12:20:02.322Z,36.06
2018-01-31T12:25:45.382Z,36.11
2018-01-31T12:28:24.933Z,36.14
2018-01-31T12:31:04.256Z,36.13
2018-01-31T12:33:43.454Z,35.92
2018-01-31T12:36:22.719Z,35.86
2018-01-31T12:39:00.253Z,35.92
2018-01-31T12:41:27.293Z,35.90
2018-01-31T12:43:54.528Z,35.63
2018-01-31T12:49:45.751Z,35.70
2018-01-31T12:52:34.956Z,35.83
2018-01-31T12:55:14.225Z,35.97
2018-01-31T12:57:53.551Z,35.80
2018-01-31T13:00:34.304Z,35.75
2018-01-31T13:03:11.848Z,35.81
2018-01-31T13:05:51.175Z,35.86
2018-01-31T13:08:30.498Z,35.70
2018-01-31T13:11:09.754Z,35.57
2018-01-31T13:13:49.201Z,35.61
2018-01-31T13:19:19.539Z,35.66
2018-01-31T13:21:59.011Z,35.77
2018-01-31T13:24:39.475Z,35.65
2018-01-31T13:27:18.767Z,35.57
2018-01-31T13:29:57.993Z,35.67
2018-01-31T13:35:52.144Z,35.54
2018-01-31T13:38:31.535Z,35.28
2018-01-31T13:41:10.814Z,35.54
2018-01-31T13:43:49.975Z,35.13
2018-01-31T13:46:29.730Z,35.66
2018-01-31T13:49:09.900Z,35.62
2018-01-31T13:51:49.286Z,35.35
2018-01-31T13:54:28.890Z,35.22
2018-01-31T13:57:08.240Z,34.51
2018-01-31T13:59:49.646Z,34.58
2018-01-31T14:02:28.868Z,34.96
2018-01-31T14:05:08.154Z,35.38
2018-01-31T14:10:54.028Z,35.23
2018-01-31T14:13:33.375Z,35.54
2018-01-31T14:16:12.624Z,35.10
2018-01-31T14:18:51.838Z,35.62
2018-01-31T14:21:31.907Z,35.60
2018-01-31T14:24:11.236Z,35.44
2018-01-31T14:26:50.528Z,35.48
2018-01-31T14:32:29.580Z,35.39
2018-01-31T14:35:08.873Z,35.58
2018-01-31T14:37:35.967Z,35.96
2018-01-31T14:40:02.989Z,36.22
2018-01-31T14:42:30.466Z,36.33
2018-01-31T14:44:57.998Z,36.52
2018-01-31T14:47:25.213Z,36.52
2018-01-31T14:49:52.284Z,36.64
2018-01-31T14:52:20.441Z,36.71
2018-01-31T14:54:47.460Z,36.88
2018-01-31T14:57:14.528Z,36.76
2018-01-31T14:59:41.615Z,36.85
2018-01-31T15:02:09.558Z,36.92
2018-01-31T15:04:37.419Z,37.00
2018-01-31T15:07:04.462Z,37.14
2018-01-31T15:09:31.584Z,37.37
2018-01-31T15:11:58.652Z,37.41
2018-01-31T15:14:25.887Z,37.54
2018-01-31T15:16:53.692Z,37.67
2018-01-31T15:19:20.757Z,37.77
2018-01-31T15:21:47.810Z,37.91
2018-01-31T15:24:15.374Z,37.92
2018-01-31T15:26:42.956Z,38.15
2018-01-31T15:29:10.683Z,38.09
2018-01-31T15:31:38.999Z,38.18
2018-01-31T15:34:07.053Z,38.35
2018-01-31T15:36:34.388Z,38.21
2018-01-31T15:39:01.892Z,38.33
2018-01-31T15:41:28.959Z,38.53
2018-01-31T15:43:56.099Z,38.36
2018-01-31T15:46:23.669Z,37.97
2018-01-31T15:48:52.596Z,37.82
2018-01-31T15:51:20.308Z,37.83
2018-01-31T15:53:48.455Z,37.93
2018-01-31T15:56:16.116Z,37.92
2018-01-31T15:58:43.959Z,37.94
2018-01-31T16:01:12.037Z,38.02
2018-01-31T16:03:39.052Z,38.05
2018-01-31T16:06:07.152Z,38.14
2018-01-31T16:08:34.176Z,38.26
2018-01-31T16:11:01.904Z,38.36
2018-01-31T16:13:29.891Z,38.45
2018-01-31T16:15:57.859Z,38.50
2018-01-31T16:18:37.617Z,38.56
2018-01-31T16:21:17.262Z,38.64
2018-01-31T16:23:45.486Z,38.68
2018-01-31T16:26:14.799Z,38.74
2018-01-31T16:28:55.542Z,38.79
2018-01-31T16:31:35.088Z,38.82
2018-01-31T16:34:04.596Z,38.87
2018-01-31T16:36:34.056Z,38.95
2018-01-31T16:39:03.727Z,38.99
2018-01-31T16:41:32.092Z,39.01
2018-01-31T16:44:01.161Z,39.10
2018-01-31T16:46:30.777Z,39.12
2018-01-31T16:48:59.878Z,39.16
2018-01-31T16:51:28.062Z,39.15
2018-01-31T16:53:57.764Z,39.19
2018-01-31T16:56:25.981Z,39.26
2018-01-31T16:58:54.808Z,39.30
2018-01-31T17:01:24.351Z,39.34
2018-01-31T17:03:54.031Z,39.45
2018-01-31T17:06:23.042Z,39.53
2018-01-31T17:08:52.549Z,39.57
2018-01-31T17:11:21.562Z,39.60
2018-01-31T17:13:50.092Z,39.61
2018-01-31T17:16:18.679Z,39.69
2018-01-31T17:18:47.035Z,39.78
2018-01-31T17:21:16.661Z,39.82
2018-01-31T17:23:46.210Z,39.92
2018-01-31T17:26:22.040Z,39.99
2018-01-31T17:28:51.016Z,39.98
2018-01-31T17:31:20.627Z,40.03
2018-01-31T17:33:49.108Z,40.16
2018-01-31T17:36:18.601Z,40.22
2018-01-31T17:38:46.833Z,40.28
2018-01-31T17:41:16.281Z,40.28
2018-01-31T17:43:48.226Z,40.29
2018-01-31T17:46:17.650Z,40.33
2018-01-31T17:48:45.950Z,40.37
2018-01-31T17:51:16.269Z,40.35
2018-01-31T17:53:46.112Z,40.39
2018-01-31T17:56:15.868Z,40.38
2018-01-31T17:58:44.484Z,40.41
2018-01-31T18:01:15.239Z,40.42
2018-01-31T18:03:46.740Z,40.48
2018-01-31T18:06:16.165Z,40.52
2018-01-31T18:08:45.144Z,40.51
2018-01-31T18:11:15.378Z,40.42
2018-01-31T18:13:43.441Z,40.49
2018-01-31T18:16:12.856Z,40.71
2018-01-31T18:18:40.889Z,40.93
2018-01-31T18:21:09.308Z,40.90
2018-01-31T18:23:39.599Z,40.87
2018-01-31T18:26:07.832Z,40.86
2018-01-31T18:28:36.612Z,40.84
2018-01-31T18:31:05.865Z,40.88
2018-01-31T18:33:35.810Z,40.97
2018-01-31T18:36:06.881Z,40.98
2018-01-31T18:38:35.208Z,41.08
2018-01-31T18:41:03.467Z,41.13
2018-01-31T18:43:32.406Z,41.25
2018-01-31T18:46:03.002Z,41.19
2018-01-31T18:48:31.788Z,41.20
2018-01-31T18:51:00.675Z,41.39
2018-01-31T18:53:29.358Z,41.38
2018-01-31T18:55:59.700Z,41.33
2018-01-31T18:58:29.277Z,41.32
2018-01-31T19:00:58.009Z,41.30
2018-01-31T19:03:27.467Z,41.21
2018-01-31T19:05:57.342Z,41.21
2018-01-31T19:08:27.237Z,41.41
2018-01-31T19:10:57.008Z,41.50
2018-01-31T19:13:25.556Z,41.49
2018-01-31T19:15:56.737Z,41.53
2018-01-31T19:18:26.928Z,41.54
2018-01-31T19:20:56.198Z,41.56
2018-01-31T19:23:26.418Z,41.58
2018-01-31T19:25:55.737Z,41.48
2018-01-31T19:28:24.630Z,41.56
2018-01-31T19:30:55.541Z,41.63
2018-01-31T19:33:24.602Z,41.43
2018-01-31T19:35:54.148Z,41.48
2018-01-31T19:38:22.779Z,41.49
2018-01-31T19:40:51.995Z,41.49
2018-01-31T19:43:20.368Z,41.41
2018-01-31T19:45:49.061Z,41.47
2018-01-31T19:48:18.566Z,41.59
2018-01-31T19:50:47.669Z,41.68
2018-01-31T19:53:16.543Z,41.80
2018-01-31T19:55:47.074Z,41.82
2018-01-31T19:58:15.385Z,41.75
2018-01-31T20:00:44.824Z,41.55
2018-01-31T20:03:13.655Z,41.54
2018-01-31T20:05:42.432Z,41.69
2018-01-31T20:08:12.643Z,41.71
2018-01-31T20:10:41.269Z,41.58
2018-01-31T20:13:11.488Z,41.72
2018-01-31T20:15:42.086Z,41.72
2018-01-31T20:18:11.509Z,41.78
2018-01-31T20:20:40.987Z,41.79
2018-01-31T20:23:12.142Z,41.79
2018-01-31T20:25:40.819Z,41.74
2018-01-31T20:28:10.052Z,41.67
2018-01-31T20:30:39.111Z,41.91
2018-01-31T20:33:08.443Z,41.91
2018-01-31T20:35:37.710Z,41.91
2018-01-31T20:38:06.488Z,41.94
2018-01-31T20:40:35.697Z,41.93
2018-01-31T20:43:04.948Z,41.92
2018-01-31T20:45:34.234Z,41.97
2018-01-31T20:48:04.767Z,41.93
2018-01-31T20:50:33.516Z,41.92
2018-01-31T20:53:02.515Z,42.00
2018-01-31T20:55:32.268Z,42.00
2018-01-31T20:58:00.422Z,41.95
2018-01-31T21:00:29.170Z,41.94
2018-01-31T21:02:57.461Z,41.85
2018-01-31T21:05:26.225Z,41.70
2018-01-31T21:07:55.048Z,41.71
2018-01-31T21:10:24.009Z,41.76
2018-01-31T21:12:52.284Z,41.76
2018-01-31T21:15:21.379Z,41.76
2018-01-31T21:17:49.229Z,41.83
2018-01-31T21:20:18.319Z,41.77
2018-01-31T21:22:46.716Z,41.92
2018-01-31T21:25:17.508Z,41.93
2018-01-31T21:27:46.241Z,41.86
2018-01-31T21:30:16.905Z,41.96
2018-01-31T21:32:46.929Z,41.94
2018-01-31T21:35:15.373Z,42.10
2018-01-31T21:37:44.674Z,42.16
2018-01-31T21:40:13.348Z,42.14
2018-01-31T21:42:42.034Z,42.16
2018-01-31T21:45:10.415Z,42.20
2018-01-31T21:47:39.096Z,42.06
2018-01-31T21:50:07.386Z,42.14
2018-01-31T21:52:35.628Z,42.27
2018-01-31T21:55:04.020Z,42.17
2018-01-31T21:57:45.442Z,42.08
2018-01-31T22:00:13.602Z,42.09
2018-01-31T22:02:41.219Z,42.04
2018-01-31T22:05:09.689Z,42.10
2018-01-31T22:07:38.435Z,42.11
2018-01-31T22:10:06.034Z,42.18
2018-01-31T22:12:34.683Z,42.08
2018-01-31T22:15:02.871Z,42.08
2018-01-31T22:17:30.466Z,42.09
2018-01-31T22:19:58.088Z,42.04
2018-01-31T22:22:27.038Z,42.02
2018-01-31T22:24:55.123Z,42.12
2018-01-31T22:27:23.687Z,42.14
2018-01-31T22:29:51.495Z,42.11
2018-01-31T22:32:19.489Z,42.09
2018-01-31T22:34:47.067Z,42.17
2018-01-31T22:37:15.006Z,42.21
2018-01-31T22:39:42.547Z,42.16
2018-01-31T22:42:10.511Z,42.19
2018-01-31T22:44:38.064Z,42.29
2018-01-31T22:47:06.287Z,42.21
2018-01-31T22:49:34.003Z,42.09
2018-01-31T22:52:01.568Z,42.10
2018-01-31T22:54:29.176Z,42.15
2018-01-31T22:56:56.755Z,42.11
2018-01-31T22:59:24.307Z,42.06
2018-01-31T23:01:51.894Z,41.98
2018-01-31T23:04:19.448Z,41.96
2018-01-31T23:06:47.056Z,41.99
2018-01-31T23:09:14.662Z,42.09
2018-01-31T23:11:45.063Z,42.00
2018-01-31T23:14:18.056Z,42.01
2018-01-31T23:16:45.602Z,42.01
2018-01-31T23:19:13.202Z,41.96
2018-01-31T23:21:41.199Z,42.01
2018-01-31T23:24:08.752Z,42.02
2018-01-31T23:26:36.347Z,41.95
2018-01-31T23:29:03.893Z,41.92
2018-01-31T23:31:31.452Z,41.97
2018-01-31T23:33:59.358Z,41.95
2018-01-31T23:36:26.907Z,41.90
2018-01-31T23:38:54.466Z,41.86
2018-01-31T23:41:22.620Z,41.80
2018-01-31T23:43:50.617Z,41.75
2018-01-31T23:46:18.188Z,41.68
2018-01-31T23:48:45.791Z,41.67
2018-01-31T23:51:13.359Z,41.81
2018-01-31T23:53:40.951Z,41.82
2018-01-31T23:56:08.504Z,41.78
2018-01-31T23:58:37.277Z,41.76
